Hoppa till innehåll

METAR väder och rapporter - EDDW

Nedan listas information från vald flygplats. Andra METARs finns längre ned på sidan. Kontakta oss om någon saknas eller skriv in egen ICAO-kod.

Coded METAR: 2022/01/28 17:20 EDDW 281720Z 24006KT 9999 BKN033 05/01 Q1031 NOSIG

Weather Report @ EDDW

Issued: 28th Jan 2022 at 18:20 CET

Wind: light breeze from West-Southwest (240 degrees) at 6 knots (7 mph, 11 kph, 3 mps, Force 2)
Visibility: 10km or more
Cloud: broken at 3300 feet
Temperature: 41F / 5C
Dewpoint: 34F / 1C
Humidity: 75%
Pressure: 1031 hPa
Weather: no significant change expected

Coded TAF: 2022/01/28 12:27 TAF EDDW 281100Z 2812/2912 31015G25KT 9999 FEW035 BECMG 2812/2814 30012KT BECMG 2815/2817 24007KT BECMG 2822/2824 24012KT BKN013 BECMG 2900/2903 25015G25KT BKN007 TEMPO 2901/2912 4000 RADZ PROB30 TEMPO 2904/2908 2500 RADZ BKN004 BECMG 2910/2912 25020G35KT BKN013

Weather Forecast @ EDDW

Issued: 28th Jan 2022 at 13:27 CET

Valid : 28th Jan 13:00 until 29th Jan 13:00 CET

13:00 CET
Wind: moderate breeze from the Northwest (310 degrees) at 15 knots (17 mph, 28 kph, 8 mps, Force 4) gusting to 25 knots (29 mph 46 kph, 13 mps)
Visibility: 10km or more
Cloud: a few clouds at 3500 feet

13:00 CET to 15:00 CET
becoming:

Wind: moderate breeze from West-Northwest (300 degrees) at 12 knots (14 mph, 22 kph, 6 mps, Force 4)

16:00 CET to 18:00 CET
becoming:

Wind: gentle breeze from West-Southwest (240 degrees) at 7 knots (8 mph, 13 kph, 4 mps, Force 3)

23:00 CET to 01:00 CET
becoming:

Wind: moderate breeze from West-Southwest (240 degrees) at 12 knots (14 mph, 22 kph, 6 mps, Force 4)
Cloud: broken at 1300 feet

01:00 CET to 04:00 CET
becoming:

Wind: moderate breeze from West-Southwest (250 degrees) at 15 knots (17 mph, 28 kph, 8 mps, Force 4) gusting to 25 knots (29 mph 46 kph, 13 mps)
Cloud: broken at 700 feet

02:00 CET to 13:00 CET
Occasional

Visibility: 4000 metres
Weather: rain and drizzle

01:00 CET to 01:00 CET
there is a 30% chance of:


05:00 CET to 09:00 CET
Occasional

Visibility: 2500 metres
Weather: rain and drizzle
Cloud: broken at 400 feet

11:00 CET to 13:00 CET
becoming:

Wind: fresh breeze from West-Southwest (250 degrees) at 20 knots (23 mph, 37 kph, 10 mps, Force 5) gusting to 35 knots (40 mph 65 kph, 18 mps)
Cloud: broken at 1300 feet

Internet delivery of weather data is not secure or reliable enough for operational purposes.

NEVER RELY ON THE OUTPUT OF THIS SCRIPT TO MAKE DECISIONS ABOUT ANYTHING IN WHICH THE WEATHER FORECAST AND ITS INTERPRETATION COULD BE AN ISSUE OF SAFETY.

Andra intressanta METARs

Klicka på önskad rubrik nedan för att visa nuvarande väder för den platsen.

Avstånd från stationen: NO 27kmESGG - Göteborg (Landvetter)
Uppdaterad: 2022-01-28 18:20
 Vind från S
Vind: S 13 km/h
Temperatur: -2°C
Vindavkylning: -7°C
Daggpunkt: -5°C
Luftfuktighet: 80%
Barometer: 1020 hPa
Summering: Klart
Sikt: mer än 10 km
2022/01/28 17:20 ESGG 281720Z 18007KT CAVOK M02/M05 Q1020
Klart
Klart
  Visa detaljer för Göteborg (Landvetter)
Avstånd från stationen: N 28kmESGP - Göteborg (Säve)
Uppdaterad: 2022-01-28 18:20
 Vind från SSV
Vind: SSV 13 km/h
Temperatur: 2°C
Vindavkylning: -1°C
Daggpunkt: -1°C
Luftfuktighet: 81%
Barometer: 1020 hPa
Summering: Klart
Sikt: mer än 10 km
2022/01/28 17:20 ESGP 281720Z 20007KT CAVOK 02/M01 Q1020
Klart
Klart
  Visa detaljer för Göteborg (Säve)
Avstånd från stationen: NO 419kmESSA - Stockholm (Arlanda)
Uppdaterad: 2022-01-28 18:20
 Vind från V
Vind: V 17 km/h
Temperatur: -2°C
Vindavkylning: -7°C
Daggpunkt: -7°C
Luftfuktighet: 69%
Barometer: 1016 hPa
Summering: Klart
Sikt: mer än 10 km
2022/01/28 17:20 ESSA 281720Z 28009KT CAVOK M02/M07 Q1016 NOSIG
Klart
Klart
  Visa detaljer för Stockholm (Arlanda)
Avstånd från stationen: ONO 404kmESSB - Stockholm (Bromma)
Uppdaterad: 2022-01-28 18:20
 Vind från VNV
Vind: VNV 22 km/h
Temperatur: 0°C
Vindavkylning: -6°C
Daggpunkt: -6°C
Luftfuktighet: 64%
Barometer: 1016 hPa
Summering: Klart
Sikt: mer än 10 km
2022/01/28 17:20 ESSB 281720Z 29012KT CAVOK M00/M06 Q1016
Klart
Klart
  Visa detaljer för Stockholm (Bromma)
Avstånd från stationen: ONO 323kmESKN - Stockholm (Skavsta)
Uppdaterad: 2022-01-28 18:20
 Vind från V
Vind: V 19 km/h
Temperatur: 0°C
Vindavkylning: -5°C
Daggpunkt: -6°C
Luftfuktighet: 64%
Barometer: 1018 hPa
Summering: Klart
Sikt: mer än 10 km
2022/01/28 17:20 ESKN 281720Z 28010KT CAVOK M00/M06 Q1018
Klart
Klart
  Visa detaljer för Stockholm (Skavsta)
Avstånd från stationen: SSO 238kmESMS - Malmö flygplats (Sturup)
Uppdaterad: 2022-01-28 18:20
 Vind från V
Vind: V 9 km/h
Temperatur: 1°C
Vindavkylning: -2°C
Daggpunkt: -5°C
Luftfuktighet: 65%
Barometer: 1024 hPa
Summering: Klart
Sikt: mer än 10 km
2022/01/28 17:20 ESMS 281720Z 26005KT CAVOK 01/M05 Q1024
Klart
Klart
  Visa detaljer för Malmö flygplats (Sturup)
Avstånd från stationen: O 382kmESSV - Visby flygplats
Uppdaterad: 2022-01-28 18:20
 Vind från NNV
Vind: NNV 37 km/h
Temperatur: 2°C
Vindavkylning: -4°C
Daggpunkt: -5°C
Luftfuktighet: 60%
Barometer: 1017 hPa
Summering: Klart
Sikt: mer än 10 km
2022/01/28 17:20 ESSV 281720Z 33020KT CAVOK 02/M05 Q1017
Klart
Klart
  Visa detaljer för Visby flygplats
Avstånd från stationen: NNO 92kmESGT - Trollhättan
Uppdaterad: 2022-01-28 18:20
 Vind från S
Vind: S 11 km/h
Temperatur: -2°C
Vindavkylning: -6°C
Daggpunkt: -5°C
Luftfuktighet: 80%
Barometer: 1019 hPa
Moln: Klart
Sikt: 10 km
2022/01/28 17:20 ESGT 281720Z AUTO 18006KT 9999 NCD M02/M05 Q1019
Klart
Klart
  Visa detaljer för Trollhättan
Avstånd från stationen: ONO 129kmESGJ - Jönköpings flygplats
Uppdaterad: 2022-01-28 18:20
 Vind från SV
Vind: SV 9 km/h
Temperatur: -3°C
Vindavkylning: -7°C
Daggpunkt: -6°C
Luftfuktighet: 80%
Barometer: 1020 hPa
Moln: Klart
Sikt: 10 km
2022/01/28 17:20 ESGJ 281720Z AUTO 22005KT 9999 NCD M03/M06 Q1020
Klart
Klart
  Visa detaljer för Jönköpings flygplats
Avstånd från stationen: NNO 229kmESOK - Karlstad
Uppdaterad: 2022-01-28 18:20
 Vind från S
Vind: S 11 km/h
Temperatur: -2°C
Vindavkylning: -6°C
Daggpunkt: -7°C
Luftfuktighet: 69%
Barometer: 1017 hPa
Moln: Klart
Sikt: 10 km
2022/01/28 17:20 ESOK 281720Z AUTO 19006KT 9999 NCD M02/M07 Q1017
Klart
Klart
  Visa detaljer för Karlstad
Avstånd från stationen: N 643kmESNZ - Östersund (Frösön)
Uppdaterad: 2022-01-28 18:20
 Vind från SSV
Vind: SSV 24 km/h
Temperatur: -2°C
Vindavkylning: -9°C
Daggpunkt: -5°C
Luftfuktighet: 80%
Barometer: 1007 hPa
Moln: Några få moln
Sikt: 10 km
Molninformation: Några få moln 579 m
2022/01/28 17:20 ESNZ 281720Z 20013KT 9999 FEW019 M02/M05 Q1007
Några få moln
Några få moln
  Visa detaljer för Östersund (Frösön)
Avstånd från stationen: SSO 216kmEKCH - Köpenhamn (Kastrup)
Uppdaterad: 2022-01-28 18:20
 Vind från V
Vind: V 13 km/h
Temperatur: 1°C
Vindavkylning: -3°C
Daggpunkt: -2°C
Luftfuktighet: 81%
Barometer: 1025 hPa
Moln: Klart
Sikt: 10 km
2022/01/28 17:20 EKCH 281720Z AUTO 27007KT 9999 NCD 01/M02 Q1025 NOSIG
Klart
Klart
  Visa detaljer för Köpenhamn (Kastrup)
Avstånd från stationen: SV 263kmEKBI - Billund Airport
Uppdaterad: 2022-01-28 18:20
 Vind från SV
Vind: SV 11 km/h
Temperatur: 4°C
Vindavkylning: 1°C
Daggpunkt: 0°C
Luftfuktighet: 75%
Barometer: 1025 hPa
Moln: Övervägande molnigt
Sikt: 10 km
Molninformation: Delvis molnigt 914 m
Övervägande molnigt 2743 m
2022/01/28 17:20 EKBI 281720Z AUTO 22006KT 9999 SCT030/// BKN090/// 04/M00 Q1025
Övervägande molnigt
Övervägande molnigt
  Visa detaljer för Billund Airport
Avstånd från stationen: N 302kmENGM - Oslo (Gardermoen)
Uppdaterad: 2022-01-28 18:20
 Vind från SSV
Vind: SSV 17 km/h
Temperatur: 0°C
Vindavkylning: -4°C
Daggpunkt: -8°C
Luftfuktighet: 55%
Barometer: 1015 hPa
Summering: Skurar i närheten
Moln: Delvis molnigt
Sikt: 10 km
2022/01/28 17:20 ENGM 281720Z 20009KT 9999 VCSH NSC M00/M08 Q1015 TEMPO 4000 -SN
Nearby showers, Delvis molnigt
Nearby showers
Delvis molnigt
  Visa detaljer för Oslo (Gardermoen)
Avstånd från stationen: NO 540kmEFMA - Mariehamn / Åland
Uppdaterad: 2022-01-28 18:20
 Vind från NV
Vind: NV 9 km/h
Temperatur: -1°C
Vindavkylning: -4°C
Daggpunkt: -6°C
Luftfuktighet: 69%
Barometer: 1013 hPa
Summering: Klart
Sikt: mer än 10 km
2022/01/28 17:20 EFMA 281720Z AUTO 31005KT CAVOK M01/M06 Q1013
Klart
Klart
  Visa detaljer för Mariehamn / Åland
Avstånd från stationen: S 558kmEDDT - Berlin (Tegel), Germany
Uppdaterad: 2020-11-09 07:50
Ej aktuell
 Vind från O
Vind: O 11 km/h
Temperatur: 6°C
Vindavkylning: 4°C
Daggpunkt: 5°C
Luftfuktighet: 93%
Barometer: 1027 hPa
Summering: Dimmigt
Moln: Genommulet
Sikt: 3 km
Molninformation: Genommulet 91 m
2020/11/09 06:50 EDDT 090650Z 09006KT 050V120 3000 BR OVC003 06/05 Q1027
Dimmigt, Genommulet
Dimmigt
Genommulet
  Visa detaljer för Berlin (Tegel), Germany
Avstånd från stationen: SV 737kmEHAM - Amsterdam (Schiphol)
Uppdaterad: 2022-01-28 18:25
 Vind från SV
Vind: SV 24 km/h
Temperatur: 7°C
Vindavkylning: 3°C
Daggpunkt: 5°C
Luftfuktighet: 87%
Barometer: 1031 hPa
Moln: Delvis molnigt
Sikt: 10 km
Molninformation: Några få moln 335 m
Delvis molnigt 549 m
2022/01/28 17:25 EHAM 281725Z 22013KT 9999 FEW011 SCT018 07/05 Q1031 NOSIG
Delvis molnigt
Delvis molnigt
  Visa detaljer för Amsterdam (Schiphol)
Avstånd från stationen: ONO 808kmEFHK - Helsingfors (Vantaa)
Uppdaterad: 2022-01-28 18:20
 Vind från NV
Vind: NV 19 km/h
Temperatur: -2°C
Vindavkylning: -8°C
Daggpunkt: -3°C
Luftfuktighet: 93%
Barometer: 1007 hPa
Moln: Övervägande molnigt
Sikt: 10 km
Molninformation: Några få moln 305 m
Delvis molnigt 427 m
Övervägande molnigt 914 m
2022/01/28 17:20 EFHK 281720Z 32010KT 9999 FEW010 SCT014 BKN030 M02/M03 Q1007 TEMPO BKN014
Övervägande molnigt
Övervägande molnigt
  Visa detaljer för Helsingfors (Vantaa)
Avstånd från stationen: SSV 537kmEDDW - Bremen
Uppdaterad: 2022-01-28 18:20
 Vind från VSV
Vind: VSV 11 km/h
Temperatur: 5°C
Vindavkylning: 2°C
Daggpunkt: 1°C
Luftfuktighet: 76%
Barometer: 1031 hPa
Moln: Övervägande molnigt
Sikt: 10 km
Molninformation: Övervägande molnigt 1006 m
2022/01/28 17:20 EDDW 281720Z 24006KT 9999 BKN033 05/01 Q1031 NOSIG
Övervägande molnigt
Övervägande molnigt
  Visa detaljer för Bremen
Avstånd från stationen: SSV 861kmEDDF - Frankfurt am Main
Uppdaterad: 2022-01-28 18:20
 Vind från SSV
Vind: SSV 7 km/h
Temperatur: 3°C
Vindavkylning: 1°C
Daggpunkt: -1°C
Luftfuktighet: 75%
Barometer: 1034 hPa
Moln: Några få moln
Sikt: 10 km
Molninformation: Några få moln 1219 m
2022/01/28 17:20 EDDF 281720Z 21004KT 180V240 9999 FEW040 03/M01 Q1034 NOSIG
Några få moln
Några få moln
  Visa detaljer för Frankfurt am Main
Avstånd från stationen: SV 880kmEBBR - Bryssel international
Uppdaterad: 2022-01-28 18:20
 Vind från SV
Vind: SV 17 km/h
Temperatur: 5°C
Vindavkylning: 2°C
Daggpunkt: 3°C
Luftfuktighet: 87%
Barometer: 1035 hPa
Moln: Övervägande molnigt
Sikt: 6 km
Molninformation: Några få moln 152 m
Övervägande molnigt 213 m
2022/01/28 17:20 EBBR 281720Z 22009KT 6000 FEW005 BKN007 05/03 Q1035 TEMPO 4000 BR
Övervägande molnigt
Övervägande molnigt
  Visa detaljer för Bryssel international
Avstånd från stationen: SV 738kmEHAM - Amsterdam (Schiphol)
Uppdaterad: 2022-01-28 18:25
 Vind från SV
Vind: SV 24 km/h
Temperatur: 7°C
Vindavkylning: 3°C
Daggpunkt: 5°C
Luftfuktighet: 87%
Barometer: 1031 hPa
Moln: Delvis molnigt
Sikt: 10 km
Molninformation: Några få moln 335 m
Delvis molnigt 549 m
2022/01/28 17:25 EHAM 281725Z 22013KT 9999 FEW011 SCT018 07/05 Q1031 NOSIG
Delvis molnigt
Delvis molnigt
  Visa detaljer för Amsterdam (Schiphol)
Avstånd från stationen: SV 1044kmEGLL - London (Heathrow)
Uppdaterad: 2022-01-28 18:20
 Vind från SV
Vind: SV 15 km/h
Temperatur: 8°C
Vindavkylning: 5°C
Daggpunkt: 4°C
Luftfuktighet: 76%
Barometer: 1032 hPa
Moln: Genommulet
Sikt: 10 km
Molninformation: Övervägande molnigt 671 m
Genommulet 823 m
2022/01/28 17:20 EGLL 281720Z AUTO 22008KT 9999 BKN022 OVC027 08/04 Q1032 NOSIG
Genommulet
Genommulet
  Visa detaljer för London (Heathrow)
Avstånd från stationen: SV 1132kmLFPG - Paris (Charles de Gaulle)
Uppdaterad: 2022-01-28 18:00
 Vind från SSV
Vind: SSV 13 km/h
Temperatur: 7°C
Vindavkylning: 5°C
Daggpunkt: 3°C
Luftfuktighet: 76%
Barometer: 1037 hPa
Moln: Övervägande molnigt
Sikt: 10 km
Molninformation: Övervägande molnigt 640 m
2022/01/28 17:00 LFPG 281700Z 21007KT 180V260 9999 BKN021 07/03 Q1037 NOSIG
Övervägande molnigt
Övervägande molnigt
  Visa detaljer för Paris (Charles de Gaulle)
Avstånd från stationen: SSV 1142kmLSZH - Zürich Airport
Uppdaterad: 2022-01-28 18:20
 Vind från varierande
Vind: varierande 4 km/h
Temperatur: 3°C
Daggpunkt: -1°C
Luftfuktighet: 75%
Barometer: 1036 hPa
Summering: Klart
Sikt: mer än 10 km
2022/01/28 17:20 LSZH 281720Z VRB02KT CAVOK 03/M01 Q1036 NOSIG
Klart
Klart
  Visa detaljer för Zürich Airport
Avstånd från stationen: S 1749kmLIRF - Rome Airport (Fiumicino - Leonardo da Vinci)
Uppdaterad: 2022-01-28 18:20
 Vind från NNV
Vind: NNV 9 km/h
Temperatur: 10°C
Vindavkylning: 9°C
Daggpunkt: 7°C
Luftfuktighet: 82%
Barometer: 1024 hPa
Summering: Klart
Sikt: mer än 10 km
2022/01/28 17:20 LIRF 281720Z 33005KT CAVOK 10/07 Q1024 NOSIG
Klart
Klart
  Visa detaljer för Rome Airport (Fiumicino - Leonardo da Vinci)
Avstånd från stationen: SO 2679kmLTAI - Antalya
Uppdaterad: 2022-01-28 18:20
 Vind från NNV
Vind: NNV 13 km/h
Temperatur: 6°C
Vindavkylning: 3°C
Daggpunkt: -6°C
Luftfuktighet: 42%
Barometer: 1021 hPa
Summering: Klart
Sikt: mer än 10 km
2022/01/28 17:20 LTAI 281720Z 33007KT 310V010 CAVOK 06/M06 Q1021 NOSIG
Klart
Klart
  Visa detaljer för Antalya
Avstånd från stationen: VSV 6074kmKJFK - New Your (JFK)
Uppdaterad: 2022-01-28 17:51
 Vind från calm
Vind: Vindstilla
Temperatur: -1°C
Daggpunkt: -3°C
Luftfuktighet: 86%
Barometer: 1020.7 hPa
Summering: Light snow, Dimmigt
Moln: Genommulet
Sikt: 6 km
Molninformation: Några få moln 518 m
Delvis molnigt 975 m
Genommulet 1829 m
2022/01/28 16:51 KJFK 281651Z 00000KT 4SM -SN BR FEW017 SCT032 OVC060 M01/M03 A3014 RMK AO2 SLP205 P0000 T10061028
Light snow, Dimmigt, Genommulet
Light snow
Dimmigt
Genommulet
  Visa detaljer för New Your (JFK)
Avstånd från stationen: VSV 8848kmKLAX - Los Angeles International Airport
Uppdaterad: 2022-01-28 17:53
 Vind från varierande
Vind: varierande 6 km/h
Temperatur: 16°C
Daggpunkt: -6°C
Luftfuktighet: 22%
Barometer: 1025.1 hPa
Moln: Övervägande molnigt
Sikt: 16 km
Molninformation: Några få moln 7315 m
Övervägande molnigt 8839 m
2022/01/28 16:53 KLAX 281653Z VRB03KT 10SM FEW240 BKN290 16/M06 A3027 RMK AO2 SLP251 T01561061
Övervägande molnigt
Övervägande molnigt
  Visa detaljer för Los Angeles International Airport
Avstånd från stationen: SO 4968kmOMDB - Dubai International Airport
Uppdaterad: 2022-01-28 18:00
 Vind från V
Vind: V 13 km/h
Temperatur: 22°C
Daggpunkt: 17°C
Luftfuktighet: 73%
Barometer: 1018 hPa
Moln: Några få moln
Sikt: 10 km
Molninformation: Några få moln 640 m
2022/01/28 17:00 OMDB 281700Z 28007KT 9999 FEW021 22/17 Q1018 NOSIG
Några få moln
Några få moln
  Visa detaljer för Dubai International Airport
Avstånd från stationen: OSO 8570kmRJTT - Tokyo International Airport
Uppdaterad: 2022-01-28 18:00
 Vind från N
Vind: N 30 km/h
Temperatur: 6°C
Vindavkylning: 2°C
Daggpunkt: -4°C
Luftfuktighet: 49%
Barometer: 1013 hPa
Moln: Övervägande molnigt
Sikt: 10 km
Molninformation: Några få moln 1524 m
Övervägande molnigt 1829 m
2022/01/28 17:00 RJTT 281700Z 35016KT 9999 FEW050 BKN060 06/M04 Q1013 NOSIG
Övervägande molnigt
Övervägande molnigt
  Visa detaljer för Tokyo International Airport
Avstånd från stationen: OSO 7125kmZBAA - Peking (Beijing Capital)
Uppdaterad: 2022-01-28 18:00
 Vind från NNV
Vind: NNV 7 km/h
Temperatur: -6°C
Vindavkylning: -9°C
Daggpunkt: -14°C
Luftfuktighet: 54%
Barometer: 1029 hPa
Summering: Klart
Sikt: mer än 10 km
2022/01/28 17:00 ZBAA 281700Z 33002MPS CAVOK M06/M14 Q1029 NOSIG
Klart
Klart
  Visa detaljer för Peking (Beijing Capital)
VÄDER KURIOSA -  LightningThe average number of deaths from lightning is more than 100 a year with several more deaths from lightning related fires. Lightning injuries account for 3-5 times than those of lightning deaths.